Hauptseite
METAR-TAF:

METAR-TAF

Flughäfen :

Rimini, Italien

Flughafen Rimini

Breite: 44-02N, Länge: 012-37E, Höhe: 12 m

Beobachtung

Neuester Wetterbericht von vor 33 Minuten, um 19:15 UTC
Wind 2 kt aus Südwest
Temperatur 6°C
Luftfeuchtigkeit 87%
Luftdruck 1014 hPa
Sichtweite 10 km oder mehr
keine Wolken unter 1500 m und keine Kumulonimbus oder Gewitterwolken

METAR: LIPR 221915Z 22002KT CAVOK 06/04 Q1014

Zeit: 20:48 (19:48 UTC)

Prognose

Neuester Wetterbericht von vor 2 Stunden und 48 Minuten, um 17:00 UTC
Gültige Prognose vom 22 um 18 UTC bis 23 um 03 UTC
Wind 5 kt aus West/Nordwest
Sichtweite 10 km oder mehr
Aufgelockert bewölkt in der Höhe von 3000 ft
Zeitweise
vom 22 um 18 UTC bis 23 um 03 UTC
Sichtweite: 4000 m
feuchter Dunst

TAF: LIPR 221700Z 2218/2303 29005KT 9999 SCT030 TEMPO 2218/2303 4000 BR

Wetterbeobachtungen und Prognosen von mehr als 4000 Flughäfen (METAR und TAF Bericht).

Die verfügbaren Stationen werden durch gelbe und rote Markierungen auf der Karte dargestellt.

Führen Sie die Maus auf sie, um den Namen der Station zu sehen.

Darauf klicken, um die Beobachtung von Wetterbeobachtungen und Prognosen zu sehen.

Um die Karte zu ändern : klicken Sie auf den grünen Tasten mit einem schwarzen Kreuz Zum Vergrößern, auf den grünen Button mit einem Gedankenstrich zu verkleinern, oder auf die grünen Pfeile für benachbarte Karten.


METAR-TAF: